Date,TemperatureHighF,TemperatureAvgF,TemperatureLowF,DewpointHighF,DewpointAvgF,DewpointLowF,HumidityHigh,HumidityAvg,HumidityLow,PressureMaxIn,PressureMinIn,WindSpeedMaxMPH,WindSpeedAvgMPH,GustSpeedMaxMPH,PrecipitationSumIn
2013-1-1,34.2,27.6,15.7,33.4,25.9,13.7,97,94,88,30.27,30.04,7,1,0,0.04
2013-1-2,34.4,21.0,10.6,24.2,16.1,8.5,94,83,50,30.30,30.20,8,0,0,0.00
2013-1-3,42.2,26.5,15.6,27.8,21.1,13.7,96,82,48,30.44,30.27,8,1,0,0.02
2013-1-4,45.9,29.2,14.3,27.3,21.1,12.2,95,75,40,30.48,30.33,11,1,13,0.00
2013-1-5,41.9,33.0,19.8,33.1,27.5,18.0,96,81,64,30.34,30.16,8,0,0,0.00
2013-1-6,43.3,30.3,15.9,31.3,23.1,13.7,92,76,42,30.37,30.21,12,2,13,0.00
2013-1-7,51.3,28.9,13.1,29.3,20.6,10.9,93,75,38,30.37,30.15,7,0,0,0.00
2013-1-8,56.1,38.5,19.5,45.6,31.3,17.7,97,78,49,30.20,30.06,8,0,0,0.23
2013-1-9,55.0,47.6,42.2,45.7,41.6,33.8,98,81,55,30.35,30.20,9,0,14,0.00
2013-1-10,50.2,46.3,41.8,49.3,44.2,35.4,98,93,64,30.25,29.80,8,1,16,0.65
2013-1-11,66.6,54.9,43.1,48.4,44.9,41.7,96,72,43,29.84,29.69,9,1,15,0.00
2013-1-12,53.2,40.5,27.7,47.1,34.7,25.6,93,81,52,29.96,29.77,16,2,16,0.38
2013-1-13,27.6,20.6,11.6,25.5,17.5,9.4,93,88,78,30.39,29.92,12,2,14,0.00
2013-1-14,30.6,18.6,8.6,17.6,12.9,6.2,93,80,55,30.53,30.38,6,0,0,0.00
2013-1-15,33.4,21.4,11.9,22.4,15.3,9.5,93,79,43,30.39,30.20,6,0,0,0.00
2013-1-16,41.2,24.2,9.8,23.1,16.5,7.5,93,75,42,30.22,30.11,13,1,13,0.01
2013-1-17,46.7,30.2,19.7,32.6,24.5,17.8,94,81,49,30.50,30.20,10,1,13,0.00
2013-1-18,58.7,37.0,16.1,31.8,22.5,14.2,95,62,24,30.52,30.18,18,1,18,0.00
2013-1-19,63.9,47.3,28.9,35.6,31.3,25.7,93,57,34,30.18,30.01,16,2,20,0.00
2013-1-20,55.9,37.3,23.5,34.1,23.1,17.1,94,62,27,30.29,30.14,6,1,0,0.00
2013-1-21,35.9,25.2,17.7,17.7,13.8,10.7,81,63,40,30.39,30.28,10,1,0,0.00
2013-1-22,34.3,23.6,15.1,18.3,15.3,11.4,89,72,50,30.38,30.26,9,0,0,0.00
2013-1-23,59.4,33.2,14.9,42.1,26.1,12.5,93,77,50,30.31,30.15,11,1,13,0.00
2013-1-24,34.5,30.7,27.3,26.3,15.3,9.8,81,53,42,30.39,30.16,12,2,18,0.00
2013-1-25,48.9,33.8,25.8,30.0,25.9,18.3,93,75,44,30.27,30.12,9,1,13,0.00
2013-1-26,58.2,41.6,25.0,30.6,24.2,21.3,92,57,24,30.30,30.14,11,1,14,0.00
2013-1-27,58.6,49.9,41.6,53.4,42.7,24.8,90,77,44,30.14,29.88,11,2,14,0.01
2013-1-28,73.8,65.9,55.6,60.9,58.5,52.6,91,78,59,29.92,29.76,14,2,16,0.00
2013-1-29,68.5,59.4,46.1,61.1,55.5,45.0,97,87,75,29.76,29.39,20,1,21,2.69
2013-1-30,46.3,32.2,24.8,45.5,27.8,18.9,97,84,74,30.04,29.40,23,8,25,0.01
2013-1-31,40.9,24.3,12.1,26.9,17.8,4.3,95,77,53,30.47,30.00,15,2,19,0.00
2013-2-1,34.4,21.3,7.0,18.6,9.0,2.5,86,62,37,30.50,30.21,7,1,0,0.00
2013-2-2,52.2,35.1,18.4,33.8,26.3,16.3,93,72,47,30.25,30.15,14,2,18,0.00
2013-2-3,52.4,40.8,32.1,30.3,25.8,18.9,81,58,30,30.26,29.96,13,2,16,0.00
2013-2-4,60.4,45.2,26.6,42.4,33.3,24.3,94,65,41,29.96,29.80,16,2,18,0.00
2013-2-5,63.2,38.6,21.3,40.0,28.4,19.8,95,73,30,30.08,29.91,15,2,17,0.00
2013-2-6,57.2,41.1,22.7,37.7,31.0,21.3,96,71,42,30.15,29.96,12,1,13,0.00
2013-2-7,55.9,47.1,40.5,51.2,43.5,36.8,96,87,71,30.06,29.84,9,1,0,0.33
2013-2-8,49.4,37.1,29.1,38.8,30.8,27.1,93,79,50,30.30,30.06,8,1,0,0.00
2013-2-9,41.1,35.3,30.6,34.9,31.0,28.1,93,85,67,30.24,29.88,14,3,16,0.07
2013-2-10,60.4,48.4,36.8,52.5,35.7,25.5,97,67,29,29.99,29.63,21,5,26,0.19
2013-2-11,51.0,36.3,23.8,28.5,25.4,21.6,93,67,36,30.17,29.99,12,2,12,0.00
2013-2-12,43.8,32.5,20.0,33.9,26.7,18.3,96,81,54,30.16,29.93,6,0,0,0.03
2013-2-13,48.6,37.2,30.8,37.1,31.7,27.7,96,82,54,29.99,29.90,14,2,16,0.20
2013-2-14,54.5,44.2,36.0,34.8,29.5,22.6,77,57,38,30.13,29.91,11,2,14,0.00
2013-2-15,40.7,32.1,16.9,31.0,20.2,12.1,88,64,34,30.31,30.13,12,2,16,0.00
2013-2-16,37.1,29.9,16.6,24.1,18.8,13.4,91,65,41,30.33,30.14,11,1,12,0.00
2013-2-17,67.0,45.3,23.1,32.1,25.1,18.7,86,49,22,30.14,29.80,11,1,13,0.00
2013-2-18,57.9,47.3,30.5,51.1,37.8,23.4,91,70,57,30.07,29.53,23,3,26,0.13
2013-2-19,42.3,29.7,18.9,23.3,17.2,9.4,88,63,28,30.31,30.07,15,3,20,0.00
2013-2-20,33.9,28.0,19.4,17.8,12.3,9.4,87,53,37,30.34,30.13,8,0,0,0.00
2013-2-21,33.4,28.8,26.3,31.8,25.1,12.7,96,87,48,30.15,29.73,16,2,18,0.00
2013-2-22,33.4,25.9,18.4,31.0,20.8,16.5,93,81,65,30.13,29.83,18,4,21,0.03
2013-2-23,40.1,25.5,14.3,24.9,18.4,12.2,94,77,46,30.12,29.99,10,1,0,0.04
2013-2-24,54.7,36.4,16.6,33.1,26.1,14.7,94,69,42,30.05,29.88,11,2,15,0.10
2013-2-25,43.8,35.1,25.3,34.2,29.2,22.7,93,80,50,29.92,29.43,10,1,15,0.64
2013-2-26,33.3,32.3,31.1,31.6,30.1,29.0,96,92,88,29.85,29.34,16,4,19,0.00
2013-2-27,34.5,31.8,29.7,29.2,27.6,25.5,90,84,76,30.04,29.79,19,6,23,0.00
2013-2-28,32.9,30.5,28.5,27.5,25.3,23.1,87,81,75,30.19,30.03,10,3,12,0.00
2013-3-1,29.5,27.8,25.9,25.0,23.3,21.4,89,83,74,30.26,30.15,12,3,13,0.00
2013-3-2,33.0,25.6,15.9,23.1,20.0,14.0,93,80,60,30.34,30.23,12,2,14,0.01
2013-3-3,56.7,37.5,15.7,29.8,23.9,13.8,94,63,33,30.24,29.82,11,2,13,0.00
2013-3-4,67.7,48.5,37.9,44.8,35.5,26.3,94,62,39,29.82,29.58,15,2,15,0.00
2013-3-5,41.7,35.7,28.6,33.1,25.7,18.9,92,68,49,30.29,29.80,25,6,27,0.04
2013-3-6,44.9,31.8,20.8,25.4,21.1,16.3,86,66,39,30.41,30.27,9,1,0,0.00
2013-3-7,60.9,43.3,26.6,30.5,26.2,22.4,88,55,23,30.30,30.14,10,1,0,0.00
2013-3-8,61.0,47.0,34.9,39.5,33.2,30.1,84,61,38,30.26,30.05,12,2,14,0.01
2013-3-9,70.8,53.2,43.7,48.4,41.0,37.7,87,66,38,30.04,29.74,16,2,16,0.08
2013-3-13,38.9,30.4,26.7,27.0,24.7,23.3,88,80,62,30.40,30.38,0,0,0,0.00
2013-3-14,71.7,45.4,23.3,41.6,31.4,21.4,94,65,29,30.38,30.08,18,2,27,0.00
2013-3-15,81.4,64.2,37.7,47.0,43.2,35.1,91,51,25,30.09,29.71,15,2,20,0.00
2013-3-16,67.0,58.2,43.5,49.3,42.7,36.2,76,57,43,29.86,29.68,13,2,14,0.00
2013-3-17,43.6,39.1,36.8,38.5,37.2,34.9,97,93,76,29.93,29.69,11,1,13,0.31
2013-3-18,53.2,41.6,28.3,41.5,36.3,26.4,98,83,44,30.04,29.69,15,3,16,0.00
2013-3-19,50.4,36.2,22.8,31.9,24.0,11.9,96,67,24,30.26,30.04,6,0,0,0.00
2013-3-20,44.1,33.1,23.1,30.2,20.4,11.2,96,64,28,30.35,30.14,19,3,22,0.00
2013-3-21,39.4,30.0,21.3,29.3,20.8,10.9,95,72,36,30.14,29.88,9,1,12,0.00
2013-3-22,36.3,32.7,29.8,33.4,31.0,28.3,96,93,88,29.97,29.88,7,1,0,0.20
2013-3-23,40.3,37.0,33.9,38.8,35.6,32.6,97,95,88,29.97,29.71,5,0,0,0.02
2013-3-24,39.7,33.1,26.7,38.9,30.4,21.1,97,90,76,30.08,29.57,20,5,26,0.00
2013-3-25,32.5,26.9,21.6,25.4,21.1,17.1,85,79,65,30.33,30.06,23,6,23,0.00
2013-3-26,42.7,29.1,19.5,25.9,22.4,18.1,95,78,49,30.43,30.33,13,2,14,0.00
2013-3-27,57.4,36.9,18.1,32.4,24.0,16.4,95,66,28,30.37,30.17,13,1,13,0.00
2013-3-28,71.8,55.4,41.5,46.6,39.1,29.4,83,56,37,30.24,30.07,10,1,16,0.00
2013-3-29,68.5,55.0,42.7,55.6,48.6,40.0,97,81,52,30.16,30.07,6,0,0,0.10
2013-3-30,71.1,55.8,49.1,56.0,50.5,47.0,96,83,54,30.10,29.81,13,2,16,1.02
2013-3-31,66.8,53.5,39.1,49.2,43.6,36.9,98,74,37,29.95,29.81,14,2,16,0.00
2013-4-1,55.2,42.6,33.9,40.5,34.9,27.7,97,76,54,30.20,29.94,9,1,0,0.01
2013-4-2,40.0,36.7,34.1,33.7,31.3,27.7,89,81,62,30.28,30.18,5,0,0,0.15
2013-4-3,53.2,42.1,30.9,35.4,27.1,20.7,92,60,29,30.30,30.16,9,1,13,0.00
2013-4-4,56.9,44.6,31.0,37.3,33.5,28.3,92,68,38,30.16,30.04,9,1,0,0.02
2013-4-5,71.0,48.7,26.5,42.2,33.4,25.1,96,64,27,30.18,29.97,8,1,0,0.00
2013-4-6,75.5,59.2,43.6,47.4,42.5,36.6,85,57,32,29.97,29.73,16,2,22,0.00
2013-4-7,79.1,66.2,51.8,58.4,52.7,45.8,89,63,40,29.86,29.67,12,2,16,0.00
2013-4-8,74.5,65.0,55.8,59.6,56.4,51.8,88,74,57,29.75,29.66,11,2,15,0.00
2013-4-9,78.6,67.1,58.0,62.2,58.1,54.4,90,74,54,29.76,29.65,14,1,18,0.00
2013-4-10,71.8,50.9,37.5,64.5,47.6,35.8,95,89,72,29.82,29.59,18,4,22,1.04
2013-4-11,48.3,38.2,30.6,35.8,32.1,28.6,95,80,53,29.84,29.73,17,6,19,0.00
2013-4-12,53.7,39.8,28.4,36.2,31.4,27.1,96,74,46,30.04,29.79,17,4,20,0.00
2013-4-13,71.1,50.8,30.3,46.4,38.0,29.0,96,66,36,30.07,29.78,10,1,13,0.00
2013-4-14,81.6,63.2,41.7,52.3,44.8,37.6,95,58,23,29.80,29.48,15,2,19,0.00
2013-4-15,81.3,64.0,51.7,64.6,55.1,45.3,92,74,51,29.82,29.63,10,1,0,0.00
2013-4-16,65.2,53.1,48.5,57.1,49.6,46.6,95,88,73,29.99,29.81,8,1,0,0.00
2013-4-17,86.3,67.3,45.2,69.2,58.2,44.1,97,75,54,29.97,29.58,16,2,16,0.00
2013-4-18,75.2,50.3,37.5,65.8,45.7,28.9,97,84,66,29.92,29.48,26,6,39,1.58
2013-4-19,52.9,41.3,33.2,36.2,28.2,23.7,91,62,35,30.10,29.92,21,7,23,0.00
2013-4-20,68.1,47.9,28.3,43.2,33.9,27.3,97,65,25,30.22,30.09,8,0,0,0.00
2013-4-21,67.6,54.6,39.6,43.7,39.0,33.3,94,60,29,30.27,30.10,14,2,17,0.00
2013-4-22,71.0,55.4,36.7,45.7,39.0,32.6,95,60,25,30.18,29.85,11,1,14,0.00
2013-4-23,59.5,46.9,35.6,52.5,43.1,33.9,95,88,59,30.08,29.81,11,2,12,0.40
2013-4-24,51.8,40.3,29.7,35.4,31.5,23.8,95,74,34,30.32,30.08,13,3,14,0.00
2013-4-25,69.6,48.8,26.4,47.8,33.1,25.2,97,63,23,30.37,30.21,8,1,0,0.00
2013-4-26,56.6,48.7,46.0,46.2,43.7,35.8,96,85,47,30.33,30.13,12,2,16,0.53
2013-4-27,54.2,49.9,46.7,52.2,48.5,45.6,97,95,91,30.15,29.98,9,1,16,0.00
2013-4-28,73.7,56.3,45.1,54.7,48.3,43.3,96,78,37,30.01,29.83,9,2,12,0.00
2013-4-29,86.3,63.3,40.1,63.2,51.0,39.3,98,71,31,29.90,29.71,10,1,14,0.00
2013-4-30,84.7,67.7,48.1,59.7,49.8,43.1,98,60,24,29.83,29.74,10,1,17,0.00
2013-5-1,82.3,65.9,47.3,62.6,55.7,45.9,97,73,46,30.02,29.83,12,1,14,0.00
2013-5-2,57.9,46.6,33.4,56.8,43.6,31.8,98,89,82,30.22,30.00,10,3,12,0.24
2013-5-3,37.2,33.7,31.7,35.6,32.2,30.5,97,94,93,30.21,29.92,9,3,0,0.35
2013-5-4,45.7,36.8,31.8,37.7,33.4,30.5,97,88,68,30.01,29.85,7,0,0,0.00
2013-5-5,57.6,47.3,33.2,49.7,42.8,32.2,98,85,68,30.08,29.99,12,3,14,0.00
2013-5-6,63.4,53.6,48.1,54.8,50.3,46.9,97,89,69,30.05,29.97,10,3,0,0.00
2013-5-7,76.8,59.1,40.4,58.0,49.0,39.6,98,74,40,30.06,29.94,8,1,0,0.00
2013-5-8,77.5,59.7,44.1,60.4,52.7,43.3,98,80,47,30.05,29.87,9,0,0,0.01
2013-5-9,75.3,62.6,53.6,63.6,57.8,51.6,97,85,60,29.95,29.83,11,2,20,0.78
2013-5-10,65.3,58.9,47.2,60.4,55.4,45.8,98,89,72,30.03,29.82,9,1,0,0.01
2013-5-11,72.3,55.1,39.8,56.1,45.0,34.6,98,73,31,30.18,30.02,14,2,15,0.00
2013-5-12,66.9,48.5,31.6,47.8,35.8,26.6,98,69,29,30.27,30.15,11,1,12,0.00
2013-5-13,80.9,60.1,39.9,58.2,47.3,38.9,98,69,32,30.18,30.00,12,1,12,0.00
2013-5-14,88.8,73.1,50.7,56.2,51.8,47.2,97,51,26,30.00,29.87,15,2,17,0.00
2013-5-15,84.1,68.9,59.9,67.7,59.0,49.5,98,72,55,29.92,29.82,8,1,12,0.60
2013-5-16,65.9,62.3,59.0,63.1,60.8,58.4,98,95,87,29.86,29.80,7,0,0,0.00
2013-5-17,81.2,68.1,60.2,65.9,62.1,59.1,98,83,54,29.90,29.82,6,0,0,0.00
2013-5-18,86.3,70.4,54.6,74.7,65.9,53.8,99,87,67,29.91,29.75,9,1,12,0.00
2013-5-19,89.2,76.1,64.9,71.7,66.2,61.1,99,75,40,29.79,29.57,12,1,16,0.04
2013-5-20,77.1,67.8,61.4,70.4,64.0,58.6,97,88,70,29.78,29.63,17,1,19,0.60
2013-5-21,67.0,61.5,57.5,63.2,59.3,55.9,98,93,80,29.84,29.55,14,1,18,0.03
2013-5-22,72.3,62.1,50.9,60.3,55.6,50.3,99,81,56,29.91,29.73,13,2,13,0.00
2013-5-23,74.6,61.4,48.1,60.9,54.5,47.5,99,80,55,30.15,29.90,8,1,0,0.00
2013-5-24,75.3,62.0,49.8,54.1,50.5,46.7,98,70,41,30.28,30.14,11,1,12,0.00
2013-5-25,83.3,65.8,50.7,67.3,57.4,47.1,95,76,52,30.22,30.02,7,0,0,0.15
2013-5-26,86.0,70.4,55.7,69.8,62.2,54.9,99,78,47,30.08,29.92,9,1,0,0.00
2013-5-27,84.5,73.5,61.2,70.5,65.6,60.0,98,78,59,29.93,29.72,10,1,13,0.00
2013-5-28,85.3,74.2,64.9,68.5,65.4,62.4,92,75,54,29.82,29.69,8,1,13,0.00
2013-5-29,82.9,72.8,62.3,68.4,64.6,60.9,98,77,57,29.84,29.69,10,1,14,0.00
2013-5-30,83.2,69.7,61.3,69.7,64.1,60.1,98,84,58,29.79,29.66,11,1,18,2.24
2013-5-31,84.4,72.1,63.1,74.4,68.1,62.3,98,88,69,29.77,29.61,6,0,0,0.02
2013-6-1,75.8,66.4,56.7,66.9,62.3,55.4,98,88,63,29.93,29.62,8,1,0,0.53
2013-6-2,65.3,58.4,49.8,56.9,54.7,48.7,99,88,72,30.02,29.92,5,0,0,0.00
2013-6-3,77.3,60.2,44.0,60.6,52.4,43.5,99,79,45,30.05,29.88,5,0,0,0.00
2013-6-4,73.9,63.9,53.9,67.4,60.7,52.8,98,90,72,29.96,29.88,6,0,0,0.06
2013-6-5,77.5,65.1,56.2,70.0,62.2,55.6,99,91,69,29.98,29.80,11,0,0,0.44
2013-6-6,72.8,63.7,53.6,65.5,60.6,52.8,99,90,71,29.90,29.83,0,0,0,0.00
2013-6-7,75.9,61.2,48.7,60.8,54.3,48.2,99,81,49,29.95,29.86,0,0,0,0.00
2013-6-8,82.1,64.0,45.3,63.1,55.5,44.4,99,78,45,29.93,29.80,4,0,0,0.00
2013-6-9,79.3,65.6,58.0,67.7,60.1,56.9,98,85,51,29.87,29.78,10,1,0,0.14
2013-6-10,89.0,73.8,57.2,74.8,65.7,56.4,98,78,55,29.86,29.78,8,1,12,0.00
2013-6-11,95.1,76.8,59.8,72.2,66.3,59.0,99,74,37,29.93,29.83,8,1,13,0.00
2013-6-12,92.0,79.9,66.2,73.0,69.6,65.0,98,73,49,29.89,29.79,11,1,13,0.00
2013-6-13,86.7,76.9,65.3,71.3,67.6,60.8,96,74,52,29.95,29.84,6,0,0,0.00
2013-6-14,89.2,74.0,58.2,75.5,67.2,57.4,99,81,59,29.99,29.86,7,0,0,0.00
2013-6-15,80.9,69.7,65.2,71.7,67.3,64.0,98,93,67,30.00,29.86,5,0,0,1.36
2013-6-16,87.6,75.9,65.3,76.9,70.6,64.7,99,85,62,29.95,29.83,6,0,0,0.00
2013-6-17,74.6,67.9,62.7,70.4,66.1,61.8,98,94,83,29.94,29.78,7,0,0,0.54
2013-6-18,87.3,71.2,56.5,70.7,64.0,55.9,99,81,48,29.98,29.90,5,0,0,0.00
2013-6-19,88.5,71.8,57.3,74.0,64.9,56.6,99,82,45,30.00,29.91,6,0,0,0.00
2013-6-20,89.2,73.9,58.2,73.5,67.0,57.6,99,81,55,30.03,29.92,7,0,0,0.00
2013-6-21,92.6,79.1,64.5,77.6,71.2,63.9,99,79,54,30.01,29.92,6,0,0,0.00
2013-6-22,90.8,76.5,66.5,77.1,71.0,65.7,99,85,56,30.00,29.87,4,0,0,0.00
2013-6-23,92.0,77.8,66.1,76.0,70.3,65.2,99,80,53,29.94,29.83,6,0,0,0.00
2013-6-24,91.2,77.3,65.2,74.5,69.7,64.3,98,80,53,29.99,29.86,6,0,0,0.00
2013-6-25,90.2,79.0,66.7,74.2,68.9,65.8,98,73,49,29.90,29.75,7,0,0,0.00
2013-6-26,93.0,82.8,68.8,79.0,73.5,67.0,96,75,57,29.84,29.75,10,1,0,0.00
2013-6-27,98.4,81.9,69.2,82.2,75.5,68.3,99,83,51,29.90,29.76,4,0,0,0.00
2013-6-28,91.1,77.2,63.1,74.8,68.6,61.3,97,77,46,29.86,29.75,6,1,0,0.00
2013-6-29,85.8,70.4,57.6,64.6,59.3,54.0,98,72,39,29.81,29.73,7,1,14,0.00
2013-6-30,78.1,69.0,59.1,63.9,60.7,57.9,97,76,58,29.92,29.78,5,0,0,0.00
2013-7-1,82.2,67.6,54.7,62.9,58.1,53.6,98,75,39,29.99,29.91,5,0,0,0.00
2013-7-2,81.7,64.6,49.5,60.6,54.8,48.7,99,75,37,30.04,29.97,6,0,0,0.00
2013-7-3,54.9,52.3,50.2,53.4,51.2,49.4,97,96,95,30.04,30.02,0,0,0,0.00
2013-7-6,85.4,85.2,85.1,65.7,65.6,65.5,52,52,52,29.96,29.96,1,0,0,0.00
2013-7-7,92.2,80.0,66.7,69.8,66.5,61.0,95,68,37,29.99,29.91,5,0,0,0.00
2013-7-8,66.7,66.6,66.5,65.2,65.1,65.0,95,95,95,29.99,29.99,0,0,0,0.00
2013-7-11,94.0,79.3,63.6,69.1,65.0,61.5,94,65,36,29.94,29.87,4,0,0,0.00
2013-7-12,89.5,72.5,59.3,68.7,61.8,58.0,98,73,43,30.02,29.92,6,1,0,0.00
2013-7-13,87.3,69.8,53.2,69.9,60.6,52.1,98,76,44,30.02,29.90,5,0,0,0.00
2013-7-14,87.3,71.1,55.8,65.1,60.0,55.0,98,73,37,30.03,29.94,6,0,0,0.00
2013-7-15,90.8,73.5,61.8,72.7,66.3,59.4,98,81,46,30.13,30.02,6,0,0,0.11
2013-7-16,91.9,74.1,63.2,75.8,69.4,62.6,99,87,46,30.23,30.12,7,0,0,0.07
2013-7-17,92.6,77.1,63.0,76.0,68.7,62.4,99,79,46,30.28,30.12,4,0,0,0.00
2013-7-18,96.3,79.1,63.9,74.9,68.5,63.0,99,75,40,30.16,29.95,5,0,0,0.00
2013-7-19,97.3,77.8,64.7,75.2,68.8,63.8,98,77,38,29.97,29.85,5,0,0,0.00
2013-7-20,96.3,74.5,65.8,74.5,68.8,64.8,98,84,46,29.91,29.77,8,0,12,0.30
2013-7-21,83.6,73.7,67.1,75.9,70.9,66.5,99,91,69,29.89,29.78,6,0,0,0.13
2013-7-22,88.3,74.1,64.1,74.6,69.0,63.1,99,85,51,29.91,29.77,9,1,0,0.01
2013-7-23,94.4,78.9,65.1,80.2,71.9,63.6,99,81,53,29.85,29.72,20,1,20,0.51
2013-7-24,85.3,74.9,64.4,73.7,69.2,63.3,98,84,58,29.97,29.78,4,0,0,0.04
2013-7-25,86.3,71.3,58.2,72.3,64.4,57.6,99,81,48,30.05,29.97,4,0,0,0.00
2013-7-26,71.4,67.4,64.7,70.5,66.7,64.1,99,98,96,30.00,29.94,5,0,0,1.69
2013-7-27,78.5,68.9,60.0,65.7,62.5,57.3,99,82,51,30.02,29.93,5,0,0,0.00
2013-7-28,72.7,65.0,58.2,67.5,63.0,57.4,99,94,79,30.03,29.95,3,0,0,0.06
2013-7-29,73.1,65.5,63.7,69.6,64.8,63.1,99,98,88,30.05,30.00,5,0,0,0.01
2013-8-26,92.8,82.6,69.6,76.3,72.8,68.7,97,74,53,30.16,30.04,3,0,0,0.00
2013-8-27,91.8,74.7,60.9,73.1,67.7,60.3,99,82,46,30.07,29.97,6,0,0,0.00
2013-8-28,91.1,74.4,60.7,76.4,68.4,60.1,99,84,52,30.04,29.96,4,0,0,0.00
2013-8-29,96.4,77.1,63.3,78.6,71.1,62.7,99,84,49,30.02,29.92,4,0,0,0.00
2013-8-30,96.0,78.4,65.5,78.1,71.3,64.9,99,82,47,29.95,29.82,5,0,0,0.00
2013-8-31,96.4,78.2,64.3,77.6,70.7,63.7,99,81,46,29.85,29.74,5,0,0,0.00
2013-9-1,83.9,73.1,68.1,74.9,70.3,67.5,99,92,65,29.86,29.72,5,0,0,0.33
2013-9-2,86.3,72.4,60.3,68.6,65.3,59.3,99,81,48,29.96,29.84,5,0,0,0.00
2013-9-3,86.6,68.0,53.1,68.3,60.4,52.5,99,81,44,30.04,29.94,4,0,0,0.00
2013-9-4,89.2,67.8,51.3,68.6,59.8,50.8,99,80,42,30.12,30.02,4,0,0,0.00
2013-9-5,88.3,68.0,51.9,67.7,60.1,51.4,99,80,42,30.16,30.06,2,0,0,0.00
2013-9-6,88.3,68.4,52.8,69.6,61.3,52.3,99,82,45,30.13,29.98,4,0,0,0.00
2013-9-7,60.5,60.3,60.1,59.6,59.4,59.1,97,97,97,30.00,30.00,0,0,0,0.00
2013-10-21,57.8,56.6,54.4,19.4,16.8,14.3,24,21,19,29.97,29.97,12,7,16,0.00